sensor_id;sensor_type;location;lat;lon;timestamp;P1;durP1;ratioP1;P2;durP2;ratioP2
67278;SDS011;54193;53.746;10.058;2023-06-10T00:00:12;16.83;;;6.30;;
67278;SDS011;54193;53.746;10.058;2023-06-10T00:03:00;17.58;;;6.22;;
67278;SDS011;54193;53.746;10.058;2023-06-10T00:05:46;19.40;;;6.68;;
67278;SDS011;54193;53.746;10.058;2023-06-10T00:08:31;18.17;;;6.30;;
67278;SDS011;54193;53.746;10.058;2023-06-10T00:11:18;13.98;;;5.70;;
67278;SDS011;54193;53.746;10.058;2023-06-10T00:14:04;15.27;;;6.20;;
67278;SDS011;54193;53.746;10.058;2023-06-10T00:16:49;16.58;;;6.40;;
67278;SDS011;54193;53.746;10.058;2023-06-10T00:19:36;19.77;;;6.55;;
67278;SDS011;54193;53.746;10.058;2023-06-10T00:22:22;16.67;;;6.28;;
67278;SDS011;54193;53.746;10.058;2023-06-10T00:25:07;17.65;;;6.50;;
67278;SDS011;54193;53.746;10.058;2023-06-10T00:27:55;15.40;;;5.87;;
67278;SDS011;54193;53.746;10.058;2023-06-10T00:30:41;18.55;;;6.10;;
67278;SDS011;54193;53.746;10.058;2023-06-10T00:33:26;13.57;;;5.35;;
67278;SDS011;54193;53.746;10.058;2023-06-10T00:36:13;12.47;;;5.60;;
67278;SDS011;54193;53.746;10.058;2023-06-10T00:38:58;11.63;;;5.20;;
67278;SDS011;54193;53.746;10.058;2023-06-10T00:41:44;12.07;;;5.30;;
67278;SDS011;54193;53.746;10.058;2023-06-10T00:44:30;11.98;;;5.50;;
67278;SDS011;54193;53.746;10.058;2023-06-10T00:47:16;12.23;;;4.93;;
67278;SDS011;54193;53.746;10.058;2023-06-10T00:50:01;11.13;;;5.10;;
67278;SDS011;54193;53.746;10.058;2023-06-10T00:52:48;9.15;;;5.15;;
67278;SDS011;54193;53.746;10.058;2023-06-10T00:55:33;13.30;;;4.77;;
67278;SDS011;54193;53.746;10.058;2023-06-10T00:58:19;11.82;;;4.68;;
67278;SDS011;54193;53.746;10.058;2023-06-10T01:01:05;12.25;;;4.90;;
67278;SDS011;54193;53.746;10.058;2023-06-10T01:03:51;14.83;;;4.47;;
67278;SDS011;54193;53.746;10.058;2023-06-10T01:09:36;12.05;;;4.30;;
67278;SDS011;54193;53.746;10.058;2023-06-10T01:12:34;12.63;;;4.35;;
67278;SDS011;54193;53.746;10.058;2023-06-10T01:15:22;11.10;;;4.72;;
67278;SDS011;54193;53.746;10.058;2023-06-10T01:18:08;12.75;;;4.60;;
67278;SDS011;54193;53.746;10.058;2023-06-10T01:20:55;10.00;;;4.40;;
67278;SDS011;54193;53.746;10.058;2023-06-10T01:23:41;12.97;;;4.23;;
67278;SDS011;54193;53.746;10.058;2023-06-10T01:26:30;8.43;;;4.25;;
67278;SDS011;54193;53.746;10.058;2023-06-10T01:29:18;8.00;;;3.90;;
67278;SDS011;54193;53.746;10.058;2023-06-10T01:32:50;8.90;;;3.80;;
67278;SDS011;54193;53.746;10.058;2023-06-10T01:35:19;11.32;;;4.07;;
67278;SDS011;54193;53.746;10.058;2023-06-10T01:38:09;9.52;;;4.03;;
67278;SDS011;54193;53.746;10.058;2023-06-10T01:40:56;10.43;;;4.13;;
67278;SDS011;54193;53.746;10.058;2023-06-10T01:43:42;10.15;;;3.60;;
67278;SDS011;54193;53.746;10.058;2023-06-10T01:46:29;10.18;;;4.20;;
67278;SDS011;54193;53.746;10.058;2023-06-10T01:49:15;12.05;;;4.20;;
67278;SDS011;54193;53.746;10.058;2023-06-10T01:52:00;11.70;;;3.77;;
67278;SDS011;54193;53.746;10.058;2023-06-10T01:54:46;11.68;;;3.95;;
67278;SDS011;54193;53.746;10.058;2023-06-10T01:57:32;11.18;;;4.00;;
67278;SDS011;54193;53.746;10.058;2023-06-10T02:00:17;8.50;;;3.83;;
67278;SDS011;54193;53.746;10.058;2023-06-10T02:03:03;9.13;;;3.55;;
67278;SDS011;54193;53.746;10.058;2023-06-10T02:05:49;9.48;;;3.75;;
67278;SDS011;54193;53.746;10.058;2023-06-10T02:08:34;10.80;;;3.90;;
67278;SDS011;54193;53.746;10.058;2023-06-10T02:11:20;11.85;;;3.90;;
67278;SDS011;54193;53.746;10.058;2023-06-10T02:14:07;8.73;;;3.90;;
67278;SDS011;54193;53.746;10.058;2023-06-10T02:16:52;9.48;;;3.53;;
67278;SDS011;54193;53.746;10.058;2023-06-10T02:19:41;8.87;;;3.67;;
67278;SDS011;54193;53.746;10.058;2023-06-10T02:22:27;10.10;;;3.88;;
67278;SDS011;54193;53.746;10.058;2023-06-10T02:25:13;7.55;;;3.22;;
67278;SDS011;54193;53.746;10.058;2023-06-10T02:27:59;11.10;;;3.77;;
67278;SDS011;54193;53.746;10.058;2023-06-10T02:30:44;10.38;;;3.80;;
67278;SDS011;54193;53.746;10.058;2023-06-10T02:33:32;9.05;;;3.75;;
67278;SDS011;54193;53.746;10.058;2023-06-10T02:36:19;9.07;;;3.80;;
67278;SDS011;54193;53.746;10.058;2023-06-10T02:39:06;9.90;;;3.70;;
67278;SDS011;54193;53.746;10.058;2023-06-10T02:41:52;11.40;;;3.80;;
67278;SDS011;54193;53.746;10.058;2023-06-10T02:44:38;10.95;;;3.97;;
67278;SDS011;54193;53.746;10.058;2023-06-10T02:47:23;8.63;;;3.80;;
67278;SDS011;54193;53.746;10.058;2023-06-10T02:50:09;10.05;;;4.22;;
67278;SDS011;54193;53.746;10.058;2023-06-10T02:52:55;8.75;;;3.65;;
67278;SDS011;54193;53.746;10.058;2023-06-10T02:55:40;10.27;;;4.30;;
67278;SDS011;54193;53.746;10.058;2023-06-10T02:58:26;10.90;;;4.00;;
67278;SDS011;54193;53.746;10.058;2023-06-10T03:01:12;10.48;;;4.13;;
67278;SDS011;54193;53.746;10.058;2023-06-10T03:03:58;10.35;;;4.30;;
67278;SDS011;54193;53.746;10.058;2023-06-10T03:06:44;9.32;;;3.80;;
67278;SDS011;54193;53.746;10.058;2023-06-10T03:09:30;10.02;;;4.03;;
67278;SDS011;54193;53.746;10.058;2023-06-10T03:12:16;10.20;;;3.95;;
67278;SDS011;54193;53.746;10.058;2023-06-10T03:15:02;10.40;;;3.80;;
67278;SDS011;54193;53.746;10.058;2023-06-10T03:17:49;11.07;;;4.00;;
67278;SDS011;54193;53.746;10.058;2023-06-10T03:20:35;9.80;;;3.85;;
67278;SDS011;54193;53.746;10.058;2023-06-10T03:23:25;10.53;;;4.03;;
67278;SDS011;54193;53.746;10.058;2023-06-10T03:26:10;11.73;;;4.20;;
67278;SDS011;54193;53.746;10.058;2023-06-10T03:28:57;11.85;;;4.15;;
67278;SDS011;54193;53.746;10.058;2023-06-10T03:31:43;11.27;;;3.58;;
67278;SDS011;54193;53.746;10.058;2023-06-10T03:34:29;10.20;;;3.95;;
67278;SDS011;54193;53.746;10.058;2023-06-10T03:37:19;9.00;;;3.78;;
67278;SDS011;54193;53.746;10.058;2023-06-10T03:40:04;9.23;;;3.80;;
67278;SDS011;54193;53.746;10.058;2023-06-10T03:42:53;10.63;;;3.50;;
67278;SDS011;54193;53.746;10.058;2023-06-10T03:45:39;10.55;;;4.20;;
67278;SDS011;54193;53.746;10.058;2023-06-10T03:48:26;9.48;;;3.90;;
67278;SDS011;54193;53.746;10.058;2023-06-10T03:51:12;9.63;;;4.10;;
67278;SDS011;54193;53.746;10.058;2023-06-10T03:53:58;11.10;;;3.95;;
67278;SDS011;54193;53.746;10.058;2023-06-10T03:56:43;11.48;;;4.50;;
67278;SDS011;54193;53.746;10.058;2023-06-10T03:59:29;13.73;;;4.97;;
67278;SDS011;54193;53.746;10.058;2023-06-10T04:02:15;10.13;;;4.50;;
67278;SDS011;54193;53.746;10.058;2023-06-10T04:05:01;11.95;;;4.70;;
67278;SDS011;54193;53.746;10.058;2023-06-10T04:07:47;12.75;;;4.57;;
67278;SDS011;54193;53.746;10.058;2023-06-10T04:10:33;10.03;;;4.80;;
67278;SDS011;54193;53.746;10.058;2023-06-10T04:13:19;11.75;;;4.63;;
67278;SDS011;54193;53.746;10.058;2023-06-10T04:16:05;9.93;;;4.85;;
67278;SDS011;54193;53.746;10.058;2023-06-10T04:18:51;12.80;;;5.20;;
67278;SDS011;54193;53.746;10.058;2023-06-10T04:21:36;14.18;;;5.15;;
67278;SDS011;54193;53.746;10.058;2023-06-10T04:24:22;13.93;;;5.35;;
67278;SDS011;54193;53.746;10.058;2023-06-10T04:27:08;10.75;;;4.95;;
67278;SDS011;54193;53.746;10.058;2023-06-10T04:29:53;9.98;;;4.18;;
67278;SDS011;54193;53.746;10.058;2023-06-10T04:32:39;9.35;;;4.40;;
67278;SDS011;54193;53.746;10.058;2023-06-10T04:35:25;11.00;;;3.50;;
67278;SDS011;54193;53.746;10.058;2023-06-10T04:38:13;8.50;;;3.20;;
67278;SDS011;54193;53.746;10.058;2023-06-10T04:40:59;9.35;;;3.33;;
67278;SDS011;54193;53.746;10.058;2023-06-10T04:43:45;8.38;;;2.85;;
67278;SDS011;54193;53.746;10.058;2023-06-10T04:46:31;11.90;;;3.20;;
67278;SDS011;54193;53.746;10.058;2023-06-10T04:49:17;7.88;;;2.50;;
67278;SDS011;54193;53.746;10.058;2023-06-10T04:52:02;10.52;;;2.58;;
67278;SDS011;54193;53.746;10.058;2023-06-10T04:54:50;7.40;;;2.40;;
67278;SDS011;54193;53.746;10.058;2023-06-10T04:57:35;7.32;;;2.55;;
67278;SDS011;54193;53.746;10.058;2023-06-10T05:00:21;7.78;;;2.00;;
67278;SDS011;54193;53.746;10.058;2023-06-10T05:03:07;7.03;;;1.95;;
67278;SDS011;54193;53.746;10.058;2023-06-10T05:05:52;5.30;;;1.70;;
67278;SDS011;54193;53.746;10.058;2023-06-10T05:08:38;6.28;;;2.00;;
67278;SDS011;54193;53.746;10.058;2023-06-10T05:11:24;7.15;;;1.80;;
67278;SDS011;54193;53.746;10.058;2023-06-10T05:14:09;9.73;;;2.00;;
67278;SDS011;54193;53.746;10.058;2023-06-10T05:16:55;7.93;;;1.70;;
67278;SDS011;54193;53.746;10.058;2023-06-10T05:19:41;7.35;;;1.98;;
67278;SDS011;54193;53.746;10.058;2023-06-10T05:22:28;5.90;;;1.52;;
67278;SDS011;54193;53.746;10.058;2023-06-10T05:25:14;8.70;;;1.98;;
67278;SDS011;54193;53.746;10.058;2023-06-10T05:27:59;7.65;;;2.00;;
67278;SDS011;54193;53.746;10.058;2023-06-10T05:30:45;7.70;;;2.00;;
67278;SDS011;54193;53.746;10.058;2023-06-10T05:33:31;9.03;;;2.07;;
67278;SDS011;54193;53.746;10.058;2023-06-10T05:36:16;5.00;;;1.85;;
67278;SDS011;54193;53.746;10.058;2023-06-10T05:39:02;8.00;;;2.05;;
67278;SDS011;54193;53.746;10.058;2023-06-10T05:41:48;7.50;;;2.23;;
67278;SDS011;54193;53.746;10.058;2023-06-10T05:44:34;8.07;;;1.95;;
67278;SDS011;54193;53.746;10.058;2023-06-10T05:47:20;7.75;;;2.20;;
67278;SDS011;54193;53.746;10.058;2023-06-10T05:50:06;6.78;;;1.98;;
67278;SDS011;54193;53.746;10.058;2023-06-10T05:52:55;7.57;;;1.83;;
67278;SDS011;54193;53.746;10.058;2023-06-10T05:55:42;9.07;;;2.10;;
67278;SDS011;54193;53.746;10.058;2023-06-10T05:58:28;9.32;;;2.10;;
67278;SDS011;54193;53.746;10.058;2023-06-10T06:01:14;7.40;;;1.77;;
67278;SDS011;54193;53.746;10.058;2023-06-10T06:04:00;10.02;;;2.22;;
67278;SDS011;54193;53.746;10.058;2023-06-10T06:06:47;6.40;;;1.77;;
67278;SDS011;54193;53.746;10.058;2023-06-10T06:09:32;5.47;;;1.63;;
67278;SDS011;54193;53.746;10.058;2023-06-10T06:12:18;5.75;;;1.77;;
67278;SDS011;54193;53.746;10.058;2023-06-10T06:15:04;5.85;;;1.80;;
67278;SDS011;54193;53.746;10.058;2023-06-10T06:17:50;6.03;;;1.80;;
67278;SDS011;54193;53.746;10.058;2023-06-10T06:20:38;8.15;;;1.98;;
67278;SDS011;54193;53.746;10.058;2023-06-10T06:23:23;7.82;;;2.10;;
67278;SDS011;54193;53.746;10.058;2023-06-10T06:26:09;6.05;;;2.03;;
67278;SDS011;54193;53.746;10.058;2023-06-10T06:28:55;6.10;;;2.10;;
67278;SDS011;54193;53.746;10.058;2023-06-10T06:31:41;7.20;;;2.10;;
67278;SDS011;54193;53.746;10.058;2023-06-10T06:34:27;5.85;;;1.90;;
67278;SDS011;54193;53.746;10.058;2023-06-10T06:37:13;6.23;;;1.90;;
67278;SDS011;54193;53.746;10.058;2023-06-10T06:39:59;5.68;;;2.20;;
67278;SDS011;54193;53.746;10.058;2023-06-10T06:42:44;4.28;;;1.77;;
67278;SDS011;54193;53.746;10.058;2023-06-10T06:45:30;5.97;;;2.25;;
67278;SDS011;54193;53.746;10.058;2023-06-10T06:48:16;5.65;;;2.40;;
67278;SDS011;54193;53.746;10.058;2023-06-10T06:51:01;8.57;;;2.10;;
67278;SDS011;54193;53.746;10.058;2023-06-10T06:53:47;4.50;;;2.03;;
67278;SDS011;54193;53.746;10.058;2023-06-10T06:56:35;5.97;;;2.27;;
67278;SDS011;54193;53.746;10.058;2023-06-10T06:59:21;7.25;;;2.30;;
67278;SDS011;54193;53.746;10.058;2023-06-10T07:02:06;9.00;;;2.35;;
67278;SDS011;54193;53.746;10.058;2023-06-10T07:04:52;6.13;;;2.40;;
67278;SDS011;54193;53.746;10.058;2023-06-10T07:07:40;5.90;;;2.45;;
67278;SDS011;54193;53.746;10.058;2023-06-10T07:10:26;7.53;;;2.30;;
67278;SDS011;54193;53.746;10.058;2023-06-10T07:13:12;8.55;;;2.45;;
67278;SDS011;54193;53.746;10.058;2023-06-10T07:15:58;8.15;;;2.20;;
67278;SDS011;54193;53.746;10.058;2023-06-10T07:18:44;5.43;;;2.05;;
67278;SDS011;54193;53.746;10.058;2023-06-10T07:21:30;5.50;;;2.10;;
67278;SDS011;54193;53.746;10.058;2023-06-10T07:24:16;9.07;;;2.37;;
67278;SDS011;54193;53.746;10.058;2023-06-10T07:27:01;5.32;;;2.25;;
67278;SDS011;54193;53.746;10.058;2023-06-10T07:29:47;7.53;;;2.30;;
67278;SDS011;54193;53.746;10.058;2023-06-10T07:32:33;6.80;;;2.35;;
67278;SDS011;54193;53.746;10.058;2023-06-10T07:35:19;6.18;;;2.20;;
67278;SDS011;54193;53.746;10.058;2023-06-10T07:38:04;6.70;;;2.00;;
67278;SDS011;54193;53.746;10.058;2023-06-10T07:40:50;8.20;;;2.50;;
67278;SDS011;54193;53.746;10.058;2023-06-10T07:43:36;5.75;;;2.25;;
67278;SDS011;54193;53.746;10.058;2023-06-10T07:46:22;6.57;;;2.13;;
67278;SDS011;54193;53.746;10.058;2023-06-10T07:49:09;6.82;;;2.47;;
67278;SDS011;54193;53.746;10.058;2023-06-10T07:51:54;6.63;;;2.38;;
67278;SDS011;54193;53.746;10.058;2023-06-10T07:54:41;5.65;;;2.13;;
67278;SDS011;54193;53.746;10.058;2023-06-10T07:57:26;6.80;;;2.80;;
67278;SDS011;54193;53.746;10.058;2023-06-10T08:00:12;9.07;;;2.60;;
67278;SDS011;54193;53.746;10.058;2023-06-10T08:02:58;8.23;;;2.47;;
67278;SDS011;54193;53.746;10.058;2023-06-10T08:05:43;8.52;;;2.60;;
67278;SDS011;54193;53.746;10.058;2023-06-10T08:08:29;6.13;;;2.60;;
67278;SDS011;54193;53.746;10.058;2023-06-10T08:11:15;7.18;;;2.63;;
67278;SDS011;54193;53.746;10.058;2023-06-10T08:14:01;7.70;;;2.85;;
67278;SDS011;54193;53.746;10.058;2023-06-10T08:16:46;8.43;;;2.70;;
67278;SDS011;54193;53.746;10.058;2023-06-10T08:19:32;7.75;;;2.78;;
67278;SDS011;54193;53.746;10.058;2023-06-10T08:22:18;7.55;;;2.83;;
67278;SDS011;54193;53.746;10.058;2023-06-10T08:25:03;7.72;;;2.85;;
67278;SDS011;54193;53.746;10.058;2023-06-10T08:27:50;7.33;;;2.93;;
67278;SDS011;54193;53.746;10.058;2023-06-10T08:30:37;6.28;;;2.70;;
67278;SDS011;54193;53.746;10.058;2023-06-10T08:33:22;6.22;;;2.63;;
67278;SDS011;54193;53.746;10.058;2023-06-10T08:36:08;12.13;;;2.90;;
67278;SDS011;54193;53.746;10.058;2023-06-10T08:38:54;5.82;;;2.28;;
67278;SDS011;54193;53.746;10.058;2023-06-10T08:41:42;6.38;;;2.08;;
67278;SDS011;54193;53.746;10.058;2023-06-10T08:44:29;7.47;;;2.67;;
67278;SDS011;54193;53.746;10.058;2023-06-10T08:47:16;6.13;;;2.47;;
67278;SDS011;54193;53.746;10.058;2023-06-10T08:50:03;7.10;;;3.33;;
67278;SDS011;54193;53.746;10.058;2023-06-10T08:52:50;7.80;;;2.88;;
67278;SDS011;54193;53.746;10.058;2023-06-10T08:55:41;9.27;;;2.90;;
67278;SDS011;54193;53.746;10.058;2023-06-10T08:58:27;8.10;;;3.20;;
67278;SDS011;54193;53.746;10.058;2023-06-10T09:01:14;7.47;;;2.95;;
67278;SDS011;54193;53.746;10.058;2023-06-10T09:04:02;8.97;;;3.23;;
67278;SDS011;54193;53.746;10.058;2023-06-10T09:06:48;7.80;;;3.03;;
67278;SDS011;54193;53.746;10.058;2023-06-10T09:09:34;7.10;;;3.10;;
67278;SDS011;54193;53.746;10.058;2023-06-10T09:12:21;9.48;;;3.42;;
67278;SDS011;54193;53.746;10.058;2023-06-10T09:15:07;7.00;;;3.30;;
67278;SDS011;54193;53.746;10.058;2023-06-10T09:17:53;6.95;;;3.17;;
67278;SDS011;54193;53.746;10.058;2023-06-10T09:20:39;8.10;;;3.28;;
67278;SDS011;54193;53.746;10.058;2023-06-10T09:23:25;8.90;;;3.15;;
67278;SDS011;54193;53.746;10.058;2023-06-10T09:26:11;7.18;;;3.15;;
67278;SDS011;54193;53.746;10.058;2023-06-10T09:29:03;8.50;;;3.40;;
67278;SDS011;54193;53.746;10.058;2023-06-10T09:31:50;9.85;;;3.33;;
67278;SDS011;54193;53.746;10.058;2023-06-10T09:34:36;9.00;;;3.00;;
67278;SDS011;54193;53.746;10.058;2023-06-10T09:37:22;9.32;;;3.50;;
67278;SDS011;54193;53.746;10.058;2023-06-10T09:40:09;9.77;;;4.68;;
67278;SDS011;54193;53.746;10.058;2023-06-10T09:42:59;8.67;;;4.00;;
67278;SDS011;54193;53.746;10.058;2023-06-10T09:45:49;8.60;;;3.60;;
67278;SDS011;54193;53.746;10.058;2023-06-10T09:48:39;7.93;;;3.10;;
67278;SDS011;54193;53.746;10.058;2023-06-10T09:51:27;7.80;;;3.40;;
67278;SDS011;54193;53.746;10.058;2023-06-10T09:54:13;8.23;;;3.42;;
67278;SDS011;54193;53.746;10.058;2023-06-10T09:56:59;8.32;;;3.55;;
67278;SDS011;54193;53.746;10.058;2023-06-10T09:59:55;10.48;;;4.47;;
67278;SDS011;54193;53.746;10.058;2023-06-10T10:05:34;8.07;;;4.00;;
67278;SDS011;54193;53.746;10.058;2023-06-10T10:08:19;8.60;;;3.77;;
67278;SDS011;54193;53.746;10.058;2023-06-10T10:11:07;10.52;;;3.95;;
67278;SDS011;54193;53.746;10.058;2023-06-10T10:13:53;11.00;;;3.67;;
67278;SDS011;54193;53.746;10.058;2023-06-10T10:16:40;7.68;;;4.28;;
67278;SDS011;54193;53.746;10.058;2023-06-10T10:19:28;9.53;;;4.40;;
67278;SDS011;54193;53.746;10.058;2023-06-10T10:22:20;8.68;;;4.45;;
67278;SDS011;54193;53.746;10.058;2023-06-10T10:25:12;8.82;;;4.18;;
67278;SDS011;54193;53.746;10.058;2023-06-10T10:30:58;9.73;;;3.30;;
67278;SDS011;54193;53.746;10.058;2023-06-10T10:33:55;8.50;;;4.03;;
67278;SDS011;54193;53.746;10.058;2023-06-10T10:36:46;9.00;;;3.90;;
67278;SDS011;54193;53.746;10.058;2023-06-10T10:39:33;7.97;;;3.70;;
67278;SDS011;54193;53.746;10.058;2023-06-10T10:42:21;10.13;;;3.88;;
67278;SDS011;54193;53.746;10.058;2023-06-10T10:45:07;7.28;;;4.00;;
67278;SDS011;54193;53.746;10.058;2023-06-10T10:47:54;10.43;;;4.00;;
67278;SDS011;54193;53.746;10.058;2023-06-10T10:50:41;11.05;;;4.35;;
67278;SDS011;54193;53.746;10.058;2023-06-10T10:53:27;9.75;;;3.70;;
67278;SDS011;54193;53.746;10.058;2023-06-10T10:56:13;13.07;;;4.57;;
67278;SDS011;54193;53.746;10.058;2023-06-10T10:59:04;11.00;;;4.27;;
67278;SDS011;54193;53.746;10.058;2023-06-10T11:01:53;9.38;;;4.10;;
67278;SDS011;54193;53.746;10.058;2023-06-10T11:04:43;12.10;;;4.85;;
67278;SDS011;54193;53.746;10.058;2023-06-10T11:07:31;8.90;;;4.35;;
67278;SDS011;54193;53.746;10.058;2023-06-10T11:10:17;9.67;;;4.23;;
67278;SDS011;54193;53.746;10.058;2023-06-10T11:13:06;9.75;;;3.83;;
67278;SDS011;54193;53.746;10.058;2023-06-10T11:15:58;9.52;;;4.20;;
67278;SDS011;54193;53.746;10.058;2023-06-10T11:18:44;8.90;;;4.10;;
67278;SDS011;54193;53.746;10.058;2023-06-10T11:21:57;9.20;;;3.75;;
67278;SDS011;54193;53.746;10.058;2023-06-10T11:24:49;7.20;;;3.15;;
67278;SDS011;54193;53.746;10.058;2023-06-10T11:27:38;7.75;;;3.17;;
67278;SDS011;54193;53.746;10.058;2023-06-10T11:30:25;8.52;;;3.78;;
67278;SDS011;54193;53.746;10.058;2023-06-10T11:33:17;9.15;;;3.90;;
67278;SDS011;54193;53.746;10.058;2023-06-10T11:36:06;9.63;;;3.75;;
67278;SDS011;54193;53.746;10.058;2023-06-10T11:39:04;9.07;;;4.23;;
67278;SDS011;54193;53.746;10.058;2023-06-10T11:41:51;7.90;;;3.50;;
67278;SDS011;54193;53.746;10.058;2023-06-10T11:44:37;9.15;;;3.65;;
67278;SDS011;54193;53.746;10.058;2023-06-10T11:47:23;9.52;;;3.88;;
67278;SDS011;54193;53.746;10.058;2023-06-10T11:50:08;9.33;;;4.10;;
67278;SDS011;54193;53.746;10.058;2023-06-10T11:52:54;9.45;;;3.75;;
67278;SDS011;54193;53.746;10.058;2023-06-10T11:55:45;8.68;;;3.25;;
67278;SDS011;54193;53.746;10.058;2023-06-10T11:58:31;9.50;;;4.20;;
67278;SDS011;54193;53.746;10.058;2023-06-10T12:01:21;7.35;;;4.18;;
67278;SDS011;54193;53.746;10.058;2023-06-10T12:04:09;8.32;;;3.65;;
67278;SDS011;54193;53.746;10.058;2023-06-10T12:06:55;9.10;;;4.32;;
67278;SDS011;54193;53.746;10.058;2023-06-10T12:09:41;6.47;;;3.23;;
67278;SDS011;54193;53.746;10.058;2023-06-10T12:12:26;7.72;;;3.70;;
67278;SDS011;54193;53.746;10.058;2023-06-10T12:15:19;9.02;;;3.63;;
67278;SDS011;54193;53.746;10.058;2023-06-10T12:18:09;6.35;;;3.45;;
67278;SDS011;54193;53.746;10.058;2023-06-10T12:21:15;10.73;;;3.67;;
67278;SDS011;54193;53.746;10.058;2023-06-10T12:24:10;7.70;;;3.22;;
67278;SDS011;54193;53.746;10.058;2023-06-10T12:26:56;9.73;;;3.50;;
67278;SDS011;54193;53.746;10.058;2023-06-10T12:29:50;6.47;;;2.90;;
67278;SDS011;54193;53.746;10.058;2023-06-10T12:32:43;5.80;;;3.60;;
67278;SDS011;54193;53.746;10.058;2023-06-10T12:35:30;9.80;;;4.05;;
67278;SDS011;54193;53.746;10.058;2023-06-10T12:38:23;9.85;;;3.30;;
67278;SDS011;54193;53.746;10.058;2023-06-10T12:41:09;9.93;;;3.38;;
67278;SDS011;54193;53.746;10.058;2023-06-10T12:43:55;9.77;;;3.47;;
67278;SDS011;54193;53.746;10.058;2023-06-10T12:46:40;5.38;;;2.90;;
67278;SDS011;54193;53.746;10.058;2023-06-10T12:49:26;9.70;;;3.55;;
67278;SDS011;54193;53.746;10.058;2023-06-10T12:52:12;8.17;;;3.53;;
67278;SDS011;54193;53.746;10.058;2023-06-10T12:54:58;8.45;;;3.35;;
67278;SDS011;54193;53.746;10.058;2023-06-10T12:57:47;9.02;;;3.15;;
67278;SDS011;54193;53.746;10.058;2023-06-10T13:00:34;7.47;;;3.08;;
67278;SDS011;54193;53.746;10.058;2023-06-10T13:03:21;9.40;;;3.13;;
67278;SDS011;54193;53.746;10.058;2023-06-10T13:06:07;10.75;;;3.45;;
67278;SDS011;54193;53.746;10.058;2023-06-10T13:08:52;10.07;;;2.92;;
67278;SDS011;54193;53.746;10.058;2023-06-10T13:11:38;6.90;;;2.80;;
67278;SDS011;54193;53.746;10.058;2023-06-10T13:14:24;8.88;;;3.60;;
67278;SDS011;54193;53.746;10.058;2023-06-10T13:17:10;7.05;;;3.20;;
67278;SDS011;54193;53.746;10.058;2023-06-10T13:19:55;6.53;;;2.70;;
67278;SDS011;54193;53.746;10.058;2023-06-10T13:22:41;8.90;;;3.13;;
67278;SDS011;54193;53.746;10.058;2023-06-10T13:25:27;8.43;;;3.67;;
67278;SDS011;54193;53.746;10.058;2023-06-10T13:28:13;7.80;;;3.25;;
67278;SDS011;54193;53.746;10.058;2023-06-10T13:30:58;7.88;;;3.25;;
67278;SDS011;54193;53.746;10.058;2023-06-10T13:33:44;9.43;;;3.30;;
67278;SDS011;54193;53.746;10.058;2023-06-10T13:36:30;8.10;;;3.38;;
67278;SDS011;54193;53.746;10.058;2023-06-10T13:39:17;6.65;;;3.20;;
67278;SDS011;54193;53.746;10.058;2023-06-10T13:42:02;7.20;;;3.08;;
67278;SDS011;54193;53.746;10.058;2023-06-10T13:44:48;7.27;;;3.07;;
67278;SDS011;54193;53.746;10.058;2023-06-10T13:47:34;10.07;;;3.65;;
67278;SDS011;54193;53.746;10.058;2023-06-10T13:50:19;9.45;;;3.70;;
67278;SDS011;54193;53.746;10.058;2023-06-10T13:53:05;10.15;;;3.75;;
67278;SDS011;54193;53.746;10.058;2023-06-10T13:55:51;8.93;;;3.57;;
67278;SDS011;54193;53.746;10.058;2023-06-10T13:58:36;7.35;;;3.15;;
67278;SDS011;54193;53.746;10.058;2023-06-10T14:01:24;7.70;;;3.20;;
67278;SDS011;54193;53.746;10.058;2023-06-10T14:04:10;9.20;;;3.40;;
67278;SDS011;54193;53.746;10.058;2023-06-10T14:06:56;7.23;;;3.50;;
67278;SDS011;54193;53.746;10.058;2023-06-10T14:09:42;11.50;;;4.40;;
67278;SDS011;54193;53.746;10.058;2023-06-10T14:12:29;8.07;;;2.92;;
67278;SDS011;54193;53.746;10.058;2023-06-10T14:15:15;8.55;;;3.40;;
67278;SDS011;54193;53.746;10.058;2023-06-10T14:18:00;8.20;;;3.70;;
67278;SDS011;54193;53.746;10.058;2023-06-10T14:20:46;8.13;;;3.65;;
67278;SDS011;54193;53.746;10.058;2023-06-10T14:23:31;8.20;;;3.10;;
67278;SDS011;54193;53.746;10.058;2023-06-10T14:26:17;9.35;;;3.22;;
67278;SDS011;54193;53.746;10.058;2023-06-10T14:29:03;8.52;;;3.42;;
67278;SDS011;54193;53.746;10.058;2023-06-10T14:31:48;8.45;;;3.50;;
67278;SDS011;54193;53.746;10.058;2023-06-10T14:34:34;8.02;;;3.28;;
67278;SDS011;54193;53.746;10.058;2023-06-10T14:37:20;6.40;;;3.30;;
67278;SDS011;54193;53.746;10.058;2023-06-10T14:40:06;7.03;;;3.67;;
67278;SDS011;54193;53.746;10.058;2023-06-10T14:42:52;5.70;;;2.47;;
67278;SDS011;54193;53.746;10.058;2023-06-10T14:45:38;7.70;;;3.30;;
67278;SDS011;54193;53.746;10.058;2023-06-10T14:48:24;7.57;;;3.10;;
67278;SDS011;54193;53.746;10.058;2023-06-10T14:51:10;7.18;;;3.42;;
67278;SDS011;54193;53.746;10.058;2023-06-10T14:53:55;8.45;;;3.70;;
67278;SDS011;54193;53.746;10.058;2023-06-10T14:56:41;8.38;;;3.63;;
67278;SDS011;54193;53.746;10.058;2023-06-10T14:59:27;8.70;;;3.30;;
67278;SDS011;54193;53.746;10.058;2023-06-10T15:02:12;9.30;;;3.50;;
67278;SDS011;54193;53.746;10.058;2023-06-10T15:04:58;6.50;;;3.20;;
67278;SDS011;54193;53.746;10.058;2023-06-10T15:07:44;10.15;;;3.38;;
67278;SDS011;54193;53.746;10.058;2023-06-10T15:10:30;9.75;;;2.88;;
67278;SDS011;54193;53.746;10.058;2023-06-10T15:13:15;8.35;;;3.45;;
67278;SDS011;54193;53.746;10.058;2023-06-10T15:16:01;7.38;;;3.45;;
67278;SDS011;54193;53.746;10.058;2023-06-10T15:18:47;7.93;;;3.30;;
67278;SDS011;54193;53.746;10.058;2023-06-10T15:21:33;10.70;;;3.22;;
67278;SDS011;54193;53.746;10.058;2023-06-10T15:24:19;11.77;;;3.50;;
67278;SDS011;54193;53.746;10.058;2023-06-10T15:27:04;9.80;;;3.88;;
67278;SDS011;54193;53.746;10.058;2023-06-10T15:29:50;9.10;;;3.90;;
67278;SDS011;54193;53.746;10.058;2023-06-10T15:32:36;10.00;;;3.50;;
67278;SDS011;54193;53.746;10.058;2023-06-10T15:35:22;8.25;;;3.22;;
67278;SDS011;54193;53.746;10.058;2023-06-10T15:38:08;7.55;;;3.65;;
67278;SDS011;54193;53.746;10.058;2023-06-10T15:40:53;6.63;;;3.17;;
67278;SDS011;54193;53.746;10.058;2023-06-10T15:43:39;8.65;;;4.00;;
67278;SDS011;54193;53.746;10.058;2023-06-10T15:46:28;8.20;;;3.50;;
67278;SDS011;54193;53.746;10.058;2023-06-10T15:49:14;7.60;;;4.30;;
67278;SDS011;54193;53.746;10.058;2023-06-10T15:51:59;7.78;;;3.60;;
67278;SDS011;54193;53.746;10.058;2023-06-10T15:54:45;8.55;;;3.50;;
67278;SDS011;54193;53.746;10.058;2023-06-10T15:57:31;4.60;;;2.45;;
67278;SDS011;54193;53.746;10.058;2023-06-10T16:00:16;9.53;;;3.30;;
67278;SDS011;54193;53.746;10.058;2023-06-10T16:03:02;11.07;;;3.60;;
67278;SDS011;54193;53.746;10.058;2023-06-10T16:05:48;7.15;;;2.90;;
67278;SDS011;54193;53.746;10.058;2023-06-10T16:08:34;7.65;;;3.42;;
67278;SDS011;54193;53.746;10.058;2023-06-10T16:11:19;8.27;;;3.80;;
67278;SDS011;54193;53.746;10.058;2023-06-10T16:14:06;8.98;;;3.60;;
67278;SDS011;54193;53.746;10.058;2023-06-10T16:16:52;8.20;;;3.40;;
67278;SDS011;54193;53.746;10.058;2023-06-10T16:19:37;10.07;;;3.55;;
67278;SDS011;54193;53.746;10.058;2023-06-10T16:22:23;8.25;;;3.10;;
67278;SDS011;54193;53.746;10.058;2023-06-10T16:25:09;7.57;;;3.08;;
67278;SDS011;54193;53.746;10.058;2023-06-10T16:27:55;7.93;;;3.38;;
67278;SDS011;54193;53.746;10.058;2023-06-10T16:30:41;6.23;;;3.20;;
67278;SDS011;54193;53.746;10.058;2023-06-10T16:33:26;8.73;;;3.00;;